sensor_id;sensor_type;location;lat;lon;timestamp;P1;durP1;ratioP1;P2;durP2;ratioP2
31754;SDS011;18325;52.018;4.726;2024-02-26T00:00:02;5.87;;;2.50;;
31754;SDS011;18325;52.018;4.726;2024-02-26T00:02:29;2.47;;;2.10;;
31754;SDS011;18325;52.018;4.726;2024-02-26T00:04:56;3.90;;;2.33;;
31754;SDS011;18325;52.018;4.726;2024-02-26T00:07:23;3.33;;;2.10;;
31754;SDS011;18325;52.018;4.726;2024-02-26T00:09:49;3.03;;;2.13;;
31754;SDS011;18325;52.018;4.726;2024-02-26T00:12:15;3.47;;;2.30;;
31754;SDS011;18325;52.018;4.726;2024-02-26T00:14:42;5.60;;;2.50;;
31754;SDS011;18325;52.018;4.726;2024-02-26T00:17:11;2.80;;;2.03;;
31754;SDS011;18325;52.018;4.726;2024-02-26T00:19:38;4.43;;;2.00;;
31754;SDS011;18325;52.018;4.726;2024-02-26T00:22:04;3.57;;;2.00;;
31754;SDS011;18325;52.018;4.726;2024-02-26T00:24:30;3.90;;;2.23;;
31754;SDS011;18325;52.018;4.726;2024-02-26T00:26:56;6.60;;;2.47;;
31754;SDS011;18325;52.018;4.726;2024-02-26T00:29:23;2.37;;;2.00;;
31754;SDS011;18325;52.018;4.726;2024-02-26T00:31:50;2.00;;;1.63;;
31754;SDS011;18325;52.018;4.726;2024-02-26T00:34:18;4.67;;;2.37;;
31754;SDS011;18325;52.018;4.726;2024-02-26T00:36:44;4.70;;;2.87;;
31754;SDS011;18325;52.018;4.726;2024-02-26T00:39:10;3.83;;;2.47;;
31754;SDS011;18325;52.018;4.726;2024-02-26T00:41:38;2.90;;;2.10;;
31754;SDS011;18325;52.018;4.726;2024-02-26T00:44:05;4.77;;;2.60;;
31754;SDS011;18325;52.018;4.726;2024-02-26T00:46:31;3.50;;;2.30;;
31754;SDS011;18325;52.018;4.726;2024-02-26T00:48:58;4.67;;;2.17;;
31754;SDS011;18325;52.018;4.726;2024-02-26T00:51:26;3.60;;;2.20;;
31754;SDS011;18325;52.018;4.726;2024-02-26T00:53:53;5.27;;;2.27;;
31754;SDS011;18325;52.018;4.726;2024-02-26T00:56:20;5.63;;;2.83;;
31754;SDS011;18325;52.018;4.726;2024-02-26T00:58:47;6.20;;;2.53;;
31754;SDS011;18325;52.018;4.726;2024-02-26T01:01:13;3.63;;;2.27;;
31754;SDS011;18325;52.018;4.726;2024-02-26T01:03:40;3.00;;;2.43;;
31754;SDS011;18325;52.018;4.726;2024-02-26T01:06:06;7.40;;;2.50;;
31754;SDS011;18325;52.018;4.726;2024-02-26T01:08:35;3.67;;;2.30;;
31754;SDS011;18325;52.018;4.726;2024-02-26T01:11:02;3.27;;;2.17;;
31754;SDS011;18325;52.018;4.726;2024-02-26T01:13:29;3.27;;;2.50;;
31754;SDS011;18325;52.018;4.726;2024-02-26T01:15:56;3.63;;;2.67;;
31754;SDS011;18325;52.018;4.726;2024-02-26T01:18:22;3.50;;;2.33;;
31754;SDS011;18325;52.018;4.726;2024-02-26T01:20:49;2.40;;;2.20;;
31754;SDS011;18325;52.018;4.726;2024-02-26T01:23:16;3.33;;;2.60;;
31754;SDS011;18325;52.018;4.726;2024-02-26T01:25:44;5.97;;;2.63;;
31754;SDS011;18325;52.018;4.726;2024-02-26T01:28:10;4.27;;;2.33;;
31754;SDS011;18325;52.018;4.726;2024-02-26T01:30:37;5.47;;;2.23;;
31754;SDS011;18325;52.018;4.726;2024-02-26T01:33:03;5.07;;;3.23;;
31754;SDS011;18325;52.018;4.726;2024-02-26T01:35:30;9.10;;;3.07;;
31754;SDS011;18325;52.018;4.726;2024-02-26T01:37:56;2.63;;;2.20;;
31754;SDS011;18325;52.018;4.726;2024-02-26T01:40:26;5.43;;;2.97;;
31754;SDS011;18325;52.018;4.726;2024-02-26T01:42:54;3.23;;;2.23;;
31754;SDS011;18325;52.018;4.726;2024-02-26T01:45:20;4.87;;;2.40;;
31754;SDS011;18325;52.018;4.726;2024-02-26T01:47:49;4.63;;;2.83;;
31754;SDS011;18325;52.018;4.726;2024-02-26T01:50:16;4.10;;;2.87;;
31754;SDS011;18325;52.018;4.726;2024-02-26T01:52:43;2.93;;;2.60;;
31754;SDS011;18325;52.018;4.726;2024-02-26T01:55:11;5.00;;;3.43;;
31754;SDS011;18325;52.018;4.726;2024-02-26T01:57:39;4.50;;;2.77;;
31754;SDS011;18325;52.018;4.726;2024-02-26T02:00:09;4.07;;;2.73;;
31754;SDS011;18325;52.018;4.726;2024-02-26T02:02:36;4.10;;;3.17;;
31754;SDS011;18325;52.018;4.726;2024-02-26T02:05:05;5.30;;;3.27;;
31754;SDS011;18325;52.018;4.726;2024-02-26T02:07:32;5.60;;;3.27;;
31754;SDS011;18325;52.018;4.726;2024-02-26T02:09:59;6.00;;;3.00;;
31754;SDS011;18325;52.018;4.726;2024-02-26T02:12:26;4.20;;;2.83;;
31754;SDS011;18325;52.018;4.726;2024-02-26T02:14:53;4.03;;;2.67;;
31754;SDS011;18325;52.018;4.726;2024-02-26T02:17:21;3.47;;;2.50;;
31754;SDS011;18325;52.018;4.726;2024-02-26T02:19:48;8.13;;;3.73;;
31754;SDS011;18325;52.018;4.726;2024-02-26T02:22:15;3.90;;;2.60;;
31754;SDS011;18325;52.018;4.726;2024-02-26T02:24:42;3.73;;;2.60;;
31754;SDS011;18325;52.018;4.726;2024-02-26T02:27:08;5.07;;;3.20;;
31754;SDS011;18325;52.018;4.726;2024-02-26T02:29:35;5.77;;;3.10;;
31754;SDS011;18325;52.018;4.726;2024-02-26T02:32:02;6.30;;;3.50;;
31754;SDS011;18325;52.018;4.726;2024-02-26T02:34:29;5.13;;;3.27;;
31754;SDS011;18325;52.018;4.726;2024-02-26T02:36:56;4.07;;;3.03;;
31754;SDS011;18325;52.018;4.726;2024-02-26T02:39:24;5.47;;;3.57;;
31754;SDS011;18325;52.018;4.726;2024-02-26T02:41:51;8.67;;;3.80;;
31754;SDS011;18325;52.018;4.726;2024-02-26T02:44:17;6.70;;;3.37;;
31754;SDS011;18325;52.018;4.726;2024-02-26T02:46:44;4.50;;;2.90;;
31754;SDS011;18325;52.018;4.726;2024-02-26T02:49:10;5.47;;;3.53;;
31754;SDS011;18325;52.018;4.726;2024-02-26T02:51:37;5.30;;;3.07;;
31754;SDS011;18325;52.018;4.726;2024-02-26T02:54:03;5.23;;;2.77;;
31754;SDS011;18325;52.018;4.726;2024-02-26T02:56:31;4.63;;;3.33;;
31754;SDS011;18325;52.018;4.726;2024-02-26T02:58:58;6.33;;;2.97;;
31754;SDS011;18325;52.018;4.726;2024-02-26T03:01:24;7.30;;;3.70;;
31754;SDS011;18325;52.018;4.726;2024-02-26T03:03:51;5.70;;;3.40;;
31754;SDS011;18325;52.018;4.726;2024-02-26T03:06:17;6.53;;;3.27;;
31754;SDS011;18325;52.018;4.726;2024-02-26T03:08:44;4.43;;;3.60;;
31754;SDS011;18325;52.018;4.726;2024-02-26T03:11:12;4.63;;;2.93;;
31754;SDS011;18325;52.018;4.726;2024-02-26T03:13:41;8.30;;;4.13;;
31754;SDS011;18325;52.018;4.726;2024-02-26T03:16:08;5.27;;;4.17;;
31754;SDS011;18325;52.018;4.726;2024-02-26T03:18:34;4.83;;;3.63;;
31754;SDS011;18325;52.018;4.726;2024-02-26T03:21:01;5.43;;;3.17;;
31754;SDS011;18325;52.018;4.726;2024-02-26T03:23:27;6.20;;;3.40;;
31754;SDS011;18325;52.018;4.726;2024-02-26T03:25:54;4.47;;;3.60;;
31754;SDS011;18325;52.018;4.726;2024-02-26T03:28:21;5.13;;;3.40;;
31754;SDS011;18325;52.018;4.726;2024-02-26T03:30:49;5.30;;;3.50;;
31754;SDS011;18325;52.018;4.726;2024-02-26T03:33:15;8.30;;;3.63;;
31754;SDS011;18325;52.018;4.726;2024-02-26T03:35:42;5.63;;;3.20;;
31754;SDS011;18325;52.018;4.726;2024-02-26T03:38:09;5.73;;;2.83;;
31754;SDS011;18325;52.018;4.726;2024-02-26T03:40:35;6.50;;;3.57;;
31754;SDS011;18325;52.018;4.726;2024-02-26T03:43:02;7.47;;;3.63;;
31754;SDS011;18325;52.018;4.726;2024-02-26T03:45:29;7.70;;;3.50;;
31754;SDS011;18325;52.018;4.726;2024-02-26T03:47:57;4.53;;;2.90;;
31754;SDS011;18325;52.018;4.726;2024-02-26T03:50:24;6.40;;;3.63;;
31754;SDS011;18325;52.018;4.726;2024-02-26T03:52:50;6.57;;;3.70;;
31754;SDS011;18325;52.018;4.726;2024-02-26T03:55:17;5.50;;;3.87;;
31754;SDS011;18325;52.018;4.726;2024-02-26T03:57:46;6.00;;;3.83;;
31754;SDS011;18325;52.018;4.726;2024-02-26T04:00:13;6.53;;;3.50;;
31754;SDS011;18325;52.018;4.726;2024-02-26T04:02:40;7.13;;;3.60;;
31754;SDS011;18325;52.018;4.726;2024-02-26T04:05:10;5.23;;;3.03;;
31754;SDS011;18325;52.018;4.726;2024-02-26T04:07:37;7.23;;;3.67;;
31754;SDS011;18325;52.018;4.726;2024-02-26T04:10:07;8.17;;;4.63;;
31754;SDS011;18325;52.018;4.726;2024-02-26T04:12:35;5.50;;;3.80;;
31754;SDS011;18325;52.018;4.726;2024-02-26T04:15:01;8.37;;;3.63;;
31754;SDS011;18325;52.018;4.726;2024-02-26T04:17:28;6.37;;;4.23;;
31754;SDS011;18325;52.018;4.726;2024-02-26T04:19:54;5.97;;;3.67;;
31754;SDS011;18325;52.018;4.726;2024-02-26T04:22:22;7.67;;;3.70;;
31754;SDS011;18325;52.018;4.726;2024-02-26T04:24:49;8.77;;;4.00;;
31754;SDS011;18325;52.018;4.726;2024-02-26T04:27:15;8.03;;;4.17;;
31754;SDS011;18325;52.018;4.726;2024-02-26T04:29:41;9.13;;;4.53;;
31754;SDS011;18325;52.018;4.726;2024-02-26T04:32:08;9.03;;;4.70;;
31754;SDS011;18325;52.018;4.726;2024-02-26T04:34:35;8.87;;;4.70;;
31754;SDS011;18325;52.018;4.726;2024-02-26T04:37:02;6.80;;;4.00;;
31754;SDS011;18325;52.018;4.726;2024-02-26T04:39:30;9.00;;;4.37;;
31754;SDS011;18325;52.018;4.726;2024-02-26T04:41:56;9.70;;;5.50;;
31754;SDS011;18325;52.018;4.726;2024-02-26T04:44:23;9.17;;;5.37;;
31754;SDS011;18325;52.018;4.726;2024-02-26T04:46:49;8.20;;;5.03;;
31754;SDS011;18325;52.018;4.726;2024-02-26T04:49:16;10.60;;;4.27;;
31754;SDS011;18325;52.018;4.726;2024-02-26T04:51:42;9.17;;;5.30;;
31754;SDS011;18325;52.018;4.726;2024-02-26T04:54:09;12.43;;;5.17;;
31754;SDS011;18325;52.018;4.726;2024-02-26T04:56:37;10.47;;;5.03;;
31754;SDS011;18325;52.018;4.726;2024-02-26T04:59:03;9.57;;;5.60;;
31754;SDS011;18325;52.018;4.726;2024-02-26T05:01:30;9.77;;;5.10;;
31754;SDS011;18325;52.018;4.726;2024-02-26T05:03:56;8.73;;;5.10;;
31754;SDS011;18325;52.018;4.726;2024-02-26T05:06:23;10.90;;;5.03;;
31754;SDS011;18325;52.018;4.726;2024-02-26T05:08:49;10.50;;;4.70;;
31754;SDS011;18325;52.018;4.726;2024-02-26T05:11:15;7.97;;;4.37;;
31754;SDS011;18325;52.018;4.726;2024-02-26T05:13:44;8.90;;;4.30;;
31754;SDS011;18325;52.018;4.726;2024-02-26T05:16:11;7.87;;;4.97;;
31754;SDS011;18325;52.018;4.726;2024-02-26T05:18:38;10.90;;;5.67;;
31754;SDS011;18325;52.018;4.726;2024-02-26T05:21:04;8.47;;;4.30;;
31754;SDS011;18325;52.018;4.726;2024-02-26T05:23:31;7.93;;;4.43;;
31754;SDS011;18325;52.018;4.726;2024-02-26T05:25:57;8.57;;;4.60;;
31754;SDS011;18325;52.018;4.726;2024-02-26T05:28:24;9.97;;;4.67;;
31754;SDS011;18325;52.018;4.726;2024-02-26T05:30:52;7.90;;;4.50;;
31754;SDS011;18325;52.018;4.726;2024-02-26T05:33:18;8.77;;;4.10;;
31754;SDS011;18325;52.018;4.726;2024-02-26T05:35:45;8.50;;;5.13;;
31754;SDS011;18325;52.018;4.726;2024-02-26T05:38:11;6.77;;;3.70;;
31754;SDS011;18325;52.018;4.726;2024-02-26T05:40:38;11.03;;;4.47;;
31754;SDS011;18325;52.018;4.726;2024-02-26T05:43:04;7.63;;;4.43;;
31754;SDS011;18325;52.018;4.726;2024-02-26T05:45:31;9.40;;;5.20;;
31754;SDS011;18325;52.018;4.726;2024-02-26T05:47:59;10.10;;;4.90;;
31754;SDS011;18325;52.018;4.726;2024-02-26T05:50:25;10.03;;;5.13;;
31754;SDS011;18325;52.018;4.726;2024-02-26T05:52:52;9.60;;;4.63;;
31754;SDS011;18325;52.018;4.726;2024-02-26T05:55:18;8.20;;;4.93;;
31754;SDS011;18325;52.018;4.726;2024-02-26T05:57:45;9.40;;;5.43;;
31754;SDS011;18325;52.018;4.726;2024-02-26T06:00:12;9.93;;;3.90;;
31754;SDS011;18325;52.018;4.726;2024-02-26T06:02:39;9.27;;;4.57;;
31754;SDS011;18325;52.018;4.726;2024-02-26T06:05:07;8.60;;;5.13;;
31754;SDS011;18325;52.018;4.726;2024-02-26T06:07:34;10.23;;;4.73;;
31754;SDS011;18325;52.018;4.726;2024-02-26T06:10:01;10.13;;;4.37;;
31754;SDS011;18325;52.018;4.726;2024-02-26T06:12:29;12.97;;;5.67;;
31754;SDS011;18325;52.018;4.726;2024-02-26T06:14:56;9.80;;;4.63;;
31754;SDS011;18325;52.018;4.726;2024-02-26T06:17:23;9.57;;;4.73;;
31754;SDS011;18325;52.018;4.726;2024-02-26T06:19:50;10.67;;;5.63;;
31754;SDS011;18325;52.018;4.726;2024-02-26T06:22:18;14.63;;;5.40;;
31754;SDS011;18325;52.018;4.726;2024-02-26T06:24:44;8.30;;;4.80;;
31754;SDS011;18325;52.018;4.726;2024-02-26T06:27:11;10.40;;;5.33;;
31754;SDS011;18325;52.018;4.726;2024-02-26T06:29:37;10.57;;;5.87;;
31754;SDS011;18325;52.018;4.726;2024-02-26T06:32:04;9.97;;;5.03;;
31754;SDS011;18325;52.018;4.726;2024-02-26T06:34:31;11.53;;;4.97;;
31754;SDS011;18325;52.018;4.726;2024-02-26T06:36:58;12.07;;;5.97;;
31754;SDS011;18325;52.018;4.726;2024-02-26T06:39:26;12.33;;;5.87;;
31754;SDS011;18325;52.018;4.726;2024-02-26T06:41:52;17.97;;;6.00;;
31754;SDS011;18325;52.018;4.726;2024-02-26T06:44:25;8.87;;;4.57;;
31754;SDS011;18325;52.018;4.726;2024-02-26T06:46:51;11.13;;;5.53;;
31754;SDS011;18325;52.018;4.726;2024-02-26T06:49:18;12.27;;;5.07;;
31754;SDS011;18325;52.018;4.726;2024-02-26T06:51:44;10.87;;;5.83;;
31754;SDS011;18325;52.018;4.726;2024-02-26T06:54:11;16.17;;;6.40;;
31754;SDS011;18325;52.018;4.726;2024-02-26T06:56:39;11.10;;;5.00;;
31754;SDS011;18325;52.018;4.726;2024-02-26T06:59:05;12.50;;;6.43;;
31754;SDS011;18325;52.018;4.726;2024-02-26T07:01:32;14.27;;;6.77;;
31754;SDS011;18325;52.018;4.726;2024-02-26T07:03:58;16.33;;;7.00;;
31754;SDS011;18325;52.018;4.726;2024-02-26T07:06:25;13.80;;;7.03;;
31754;SDS011;18325;52.018;4.726;2024-02-26T07:08:52;18.43;;;7.40;;
31754;SDS011;18325;52.018;4.726;2024-02-26T07:11:20;13.07;;;6.00;;
31754;SDS011;18325;52.018;4.726;2024-02-26T07:13:47;16.63;;;8.23;;
31754;SDS011;18325;52.018;4.726;2024-02-26T07:16:14;17.47;;;8.70;;
31754;SDS011;18325;52.018;4.726;2024-02-26T07:18:41;18.17;;;8.73;;
31754;SDS011;18325;52.018;4.726;2024-02-26T07:21:08;19.43;;;8.30;;
31754;SDS011;18325;52.018;4.726;2024-02-26T07:23:35;23.23;;;10.93;;
31754;SDS011;18325;52.018;4.726;2024-02-26T07:26:01;18.23;;;8.53;;
31754;SDS011;18325;52.018;4.726;2024-02-26T07:28:28;18.40;;;9.03;;
31754;SDS011;18325;52.018;4.726;2024-02-26T07:30:56;18.70;;;8.40;;
31754;SDS011;18325;52.018;4.726;2024-02-26T07:33:23;18.83;;;8.80;;
31754;SDS011;18325;52.018;4.726;2024-02-26T07:35:49;13.20;;;7.80;;
31754;SDS011;18325;52.018;4.726;2024-02-26T07:38:16;17.77;;;9.70;;
31754;SDS011;18325;52.018;4.726;2024-02-26T07:40:43;18.30;;;8.97;;
31754;SDS011;18325;52.018;4.726;2024-02-26T07:43:09;14.93;;;8.30;;
31754;SDS011;18325;52.018;4.726;2024-02-26T07:45:36;20.43;;;9.83;;
31754;SDS011;18325;52.018;4.726;2024-02-26T07:48:04;18.93;;;9.33;;
31754;SDS011;18325;52.018;4.726;2024-02-26T07:50:31;17.30;;;9.07;;
31754;SDS011;18325;52.018;4.726;2024-02-26T07:52:58;16.40;;;7.80;;
31754;SDS011;18325;52.018;4.726;2024-02-26T07:55:24;16.57;;;8.47;;
31754;SDS011;18325;52.018;4.726;2024-02-26T07:57:50;16.07;;;8.23;;
31754;SDS011;18325;52.018;4.726;2024-02-26T08:00:17;20.03;;;8.97;;
31754;SDS011;18325;52.018;4.726;2024-02-26T08:02:44;14.70;;;7.67;;
31754;SDS011;18325;52.018;4.726;2024-02-26T08:05:13;14.07;;;8.07;;
31754;SDS011;18325;52.018;4.726;2024-02-26T08:07:40;13.40;;;6.80;;
31754;SDS011;18325;52.018;4.726;2024-02-26T08:10:07;13.70;;;7.70;;
31754;SDS011;18325;52.018;4.726;2024-02-26T08:12:34;14.37;;;7.47;;
31754;SDS011;18325;52.018;4.726;2024-02-26T08:15:01;11.90;;;6.40;;
31754;SDS011;18325;52.018;4.726;2024-02-26T08:17:27;12.37;;;6.97;;
31754;SDS011;18325;52.018;4.726;2024-02-26T08:19:53;14.37;;;8.27;;
31754;SDS011;18325;52.018;4.726;2024-02-26T08:22:22;11.47;;;6.43;;
31754;SDS011;18325;52.018;4.726;2024-02-26T08:24:49;12.90;;;6.83;;
31754;SDS011;18325;52.018;4.726;2024-02-26T08:27:15;14.93;;;7.13;;
31754;SDS011;18325;52.018;4.726;2024-02-26T08:29:42;11.87;;;6.27;;
31754;SDS011;18325;52.018;4.726;2024-02-26T08:32:08;12.77;;;6.53;;
31754;SDS011;18325;52.018;4.726;2024-02-26T08:34:35;10.80;;;6.03;;
31754;SDS011;18325;52.018;4.726;2024-02-26T08:37:02;12.23;;;5.90;;
31754;SDS011;18325;52.018;4.726;2024-02-26T08:39:30;11.57;;;5.97;;
31754;SDS011;18325;52.018;4.726;2024-02-26T08:41:57;14.13;;;6.00;;
31754;SDS011;18325;52.018;4.726;2024-02-26T08:44:24;11.87;;;6.10;;
31754;SDS011;18325;52.018;4.726;2024-02-26T08:46:51;9.60;;;5.90;;
31754;SDS011;18325;52.018;4.726;2024-02-26T08:49:17;12.33;;;6.03;;
31754;SDS011;18325;52.018;4.726;2024-02-26T08:51:44;9.43;;;5.27;;
31754;SDS011;18325;52.018;4.726;2024-02-26T08:54:10;10.57;;;5.63;;
31754;SDS011;18325;52.018;4.726;2024-02-26T08:56:38;8.73;;;5.10;;
31754;SDS011;18325;52.018;4.726;2024-02-26T08:59:05;10.87;;;6.07;;
31754;SDS011;18325;52.018;4.726;2024-02-26T09:01:31;14.07;;;5.80;;
31754;SDS011;18325;52.018;4.726;2024-02-26T09:03:58;7.47;;;4.50;;
31754;SDS011;18325;52.018;4.726;2024-02-26T09:06:25;10.33;;;5.50;;
31754;SDS011;18325;52.018;4.726;2024-02-26T09:08:51;7.90;;;4.33;;
31754;SDS011;18325;52.018;4.726;2024-02-26T09:11:18;9.80;;;4.83;;
31754;SDS011;18325;52.018;4.726;2024-02-26T09:13:46;10.30;;;5.63;;
31754;SDS011;18325;52.018;4.726;2024-02-26T09:16:12;12.20;;;3.33;;
31754;SDS011;18325;52.018;4.726;2024-02-26T09:18:39;12.13;;;4.43;;
31754;SDS011;18325;52.018;4.726;2024-02-26T09:21:06;9.20;;;4.13;;
31754;SDS011;18325;52.018;4.726;2024-02-26T09:23:32;6.40;;;3.50;;
31754;SDS011;18325;52.018;4.726;2024-02-26T09:26:00;5.23;;;3.80;;
31754;SDS011;18325;52.018;4.726;2024-02-26T09:28:26;7.40;;;3.73;;
31754;SDS011;18325;52.018;4.726;2024-02-26T09:30:54;6.70;;;4.17;;
31754;SDS011;18325;52.018;4.726;2024-02-26T09:33:20;6.60;;;3.60;;
31754;SDS011;18325;52.018;4.726;2024-02-26T09:35:47;9.53;;;4.20;;
31754;SDS011;18325;52.018;4.726;2024-02-26T09:38:14;7.57;;;3.97;;
31754;SDS011;18325;52.018;4.726;2024-02-26T09:40:41;5.67;;;2.97;;
31754;SDS011;18325;52.018;4.726;2024-02-26T09:43:07;4.83;;;2.73;;
31754;SDS011;18325;52.018;4.726;2024-02-26T09:45:36;5.50;;;3.33;;
31754;SDS011;18325;52.018;4.726;2024-02-26T09:48:05;4.80;;;2.90;;
31754;SDS011;18325;52.018;4.726;2024-02-26T09:50:34;6.10;;;3.17;;
31754;SDS011;18325;52.018;4.726;2024-02-26T09:53:01;9.73;;;4.17;;
31754;SDS011;18325;52.018;4.726;2024-02-26T09:55:28;4.87;;;3.10;;
31754;SDS011;18325;52.018;4.726;2024-02-26T09:57:55;4.80;;;3.63;;
31754;SDS011;18325;52.018;4.726;2024-02-26T10:00:22;5.43;;;2.63;;
31754;SDS011;18325;52.018;4.726;2024-02-26T10:02:48;5.60;;;3.00;;
31754;SDS011;18325;52.018;4.726;2024-02-26T10:05:17;6.23;;;3.23;;
31754;SDS011;18325;52.018;4.726;2024-02-26T10:07:44;5.60;;;3.70;;
31754;SDS011;18325;52.018;4.726;2024-02-26T10:10:11;4.70;;;2.73;;
31754;SDS011;18325;52.018;4.726;2024-02-26T10:12:38;5.70;;;3.30;;
31754;SDS011;18325;52.018;4.726;2024-02-26T10:15:04;6.00;;;3.20;;
31754;SDS011;18325;52.018;4.726;2024-02-26T10:17:31;7.50;;;3.77;;
31754;SDS011;18325;52.018;4.726;2024-02-26T10:20:10;5.13;;;2.77;;
31754;SDS011;18325;52.018;4.726;2024-02-26T10:22:39;4.90;;;3.17;;
31754;SDS011;18325;52.018;4.726;2024-02-26T10:25:06;5.60;;;3.43;;
31754;SDS011;18325;52.018;4.726;2024-02-26T10:27:33;5.87;;;3.20;;
31754;SDS011;18325;52.018;4.726;2024-02-26T10:30:01;6.53;;;3.70;;
31754;SDS011;18325;52.018;4.726;2024-02-26T10:32:30;6.33;;;3.47;;
31754;SDS011;18325;52.018;4.726;2024-02-26T10:34:56;7.17;;;3.57;;
31754;SDS011;18325;52.018;4.726;2024-02-26T10:37:23;5.13;;;2.80;;
31754;SDS011;18325;52.018;4.726;2024-02-26T10:39:51;4.70;;;3.10;;
31754;SDS011;18325;52.018;4.726;2024-02-26T10:42:18;8.40;;;4.13;;
31754;SDS011;18325;52.018;4.726;2024-02-26T10:44:44;6.07;;;3.30;;
31754;SDS011;18325;52.018;4.726;2024-02-26T10:47:13;6.13;;;3.80;;
31754;SDS011;18325;52.018;4.726;2024-02-26T10:49:44;8.03;;;3.50;;
31754;SDS011;18325;52.018;4.726;2024-02-26T10:52:11;5.23;;;2.73;;
31754;SDS011;18325;52.018;4.726;2024-02-26T10:54:38;6.03;;;3.50;;
31754;SDS011;18325;52.018;4.726;2024-02-26T10:57:08;6.43;;;3.63;;
31754;SDS011;18325;52.018;4.726;2024-02-26T10:59:34;7.07;;;3.27;;
31754;SDS011;18325;52.018;4.726;2024-02-26T11:02:01;5.73;;;3.00;;
31754;SDS011;18325;52.018;4.726;2024-02-26T11:04:28;7.00;;;3.47;;
31754;SDS011;18325;52.018;4.726;2024-02-26T11:06:56;6.97;;;4.10;;
31754;SDS011;18325;52.018;4.726;2024-02-26T11:09:23;5.80;;;3.37;;
31754;SDS011;18325;52.018;4.726;2024-02-26T11:11:50;8.30;;;4.13;;
31754;SDS011;18325;52.018;4.726;2024-02-26T11:14:21;5.03;;;2.87;;
31754;SDS011;18325;52.018;4.726;2024-02-26T11:16:50;5.80;;;3.47;;
31754;SDS011;18325;52.018;4.726;2024-02-26T11:19:17;5.10;;;3.33;;
31754;SDS011;18325;52.018;4.726;2024-02-26T11:21:44;4.60;;;2.97;;
31754;SDS011;18325;52.018;4.726;2024-02-26T11:24:11;5.27;;;3.23;;
31754;SDS011;18325;52.018;4.726;2024-02-26T11:26:40;12.30;;;4.40;;
31754;SDS011;18325;52.018;4.726;2024-02-26T11:29:16;6.67;;;3.67;;
31754;SDS011;18325;52.018;4.726;2024-02-26T11:31:46;6.53;;;2.83;;
31754;SDS011;18325;52.018;4.726;2024-02-26T11:34:13;4.17;;;2.57;;
31754;SDS011;18325;52.018;4.726;2024-02-26T11:36:40;6.67;;;3.67;;
31754;SDS011;18325;52.018;4.726;2024-02-26T11:39:07;7.13;;;3.60;;
31754;SDS011;18325;52.018;4.726;2024-02-26T11:41:34;5.33;;;3.13;;
31754;SDS011;18325;52.018;4.726;2024-02-26T11:44:02;5.77;;;3.27;;
31754;SDS011;18325;52.018;4.726;2024-02-26T11:46:32;6.93;;;3.40;;
31754;SDS011;18325;52.018;4.726;2024-02-26T11:49:01;6.77;;;3.13;;
31754;SDS011;18325;52.018;4.726;2024-02-26T11:51:32;8.53;;;3.47;;
31754;SDS011;18325;52.018;4.726;2024-02-26T11:53:59;8.33;;;3.83;;
31754;SDS011;18325;52.018;4.726;2024-02-26T11:56:25;7.03;;;3.67;;
31754;SDS011;18325;52.018;4.726;2024-02-26T11:58:56;7.17;;;3.47;;
31754;SDS011;18325;52.018;4.726;2024-02-26T12:04:20;6.67;;;3.17;;
31754;SDS011;18325;52.018;4.726;2024-02-26T12:06:51;5.13;;;3.77;;
31754;SDS011;18325;52.018;4.726;2024-02-26T12:09:34;4.83;;;3.37;;
31754;SDS011;18325;52.018;4.726;2024-02-26T12:12:02;5.43;;;3.47;;
31754;SDS011;18325;52.018;4.726;2024-02-26T12:14:29;5.40;;;3.00;;
31754;SDS011;18325;52.018;4.726;2024-02-26T12:16:58;4.30;;;2.97;;
31754;SDS011;18325;52.018;4.726;2024-02-26T12:19:26;6.10;;;3.40;;
31754;SDS011;18325;52.018;4.726;2024-02-26T12:21:53;7.67;;;3.17;;
31754;SDS011;18325;52.018;4.726;2024-02-26T12:24:20;5.87;;;3.00;;
31754;SDS011;18325;52.018;4.726;2024-02-26T12:26:47;3.37;;;2.73;;
31754;SDS011;18325;52.018;4.726;2024-02-26T12:29:13;6.30;;;2.93;;
31754;SDS011;18325;52.018;4.726;2024-02-26T12:31:40;6.03;;;2.97;;
31754;SDS011;18325;52.018;4.726;2024-02-26T12:34:07;7.87;;;3.57;;
31754;SDS011;18325;52.018;4.726;2024-02-26T12:36:36;5.93;;;3.03;;
31754;SDS011;18325;52.018;4.726;2024-02-26T12:39:04;6.00;;;3.27;;
31754;SDS011;18325;52.018;4.726;2024-02-26T12:41:31;6.40;;;3.13;;
31754;SDS011;18325;52.018;4.726;2024-02-26T12:43:58;5.87;;;2.83;;
31754;SDS011;18325;52.018;4.726;2024-02-26T12:46:25;4.80;;;3.13;;
31754;SDS011;18325;52.018;4.726;2024-02-26T12:48:51;6.07;;;3.40;;
31754;SDS011;18325;52.018;4.726;2024-02-26T12:51:19;5.73;;;2.90;;
31754;SDS011;18325;52.018;4.726;2024-02-26T12:53:47;2.60;;;2.40;;
31754;SDS011;18325;52.018;4.726;2024-02-26T12:56:15;4.90;;;2.80;;
31754;SDS011;18325;52.018;4.726;2024-02-26T12:58:42;4.17;;;2.53;;
31754;SDS011;18325;52.018;4.726;2024-02-26T13:01:09;3.50;;;2.23;;
31754;SDS011;18325;52.018;4.726;2024-02-26T13:03:40;4.30;;;2.60;;
31754;SDS011;18325;52.018;4.726;2024-02-26T13:06:07;5.17;;;3.03;;
31754;SDS011;18325;52.018;4.726;2024-02-26T13:08:34;6.50;;;2.53;;
31754;SDS011;18325;52.018;4.726;2024-02-26T13:11:02;5.73;;;2.80;;
31754;SDS011;18325;52.018;4.726;2024-02-26T13:13:29;5.87;;;2.67;;
31754;SDS011;18325;52.018;4.726;2024-02-26T13:16:01;4.93;;;2.87;;
31754;SDS011;18325;52.018;4.726;2024-02-26T13:18:29;4.37;;;3.20;;
31754;SDS011;18325;52.018;4.726;2024-02-26T13:21:05;5.40;;;2.40;;
31754;SDS011;18325;52.018;4.726;2024-02-26T13:23:33;5.00;;;3.20;;
31754;SDS011;18325;52.018;4.726;2024-02-26T13:25:59;3.80;;;2.53;;
31754;SDS011;18325;52.018;4.726;2024-02-26T13:28:27;5.77;;;3.77;;
31754;SDS011;18325;52.018;4.726;2024-02-26T13:30:54;3.23;;;2.67;;
31754;SDS011;18325;52.018;4.726;2024-02-26T13:33:22;3.67;;;2.40;;
31754;SDS011;18325;52.018;4.726;2024-02-26T13:35:49;4.97;;;3.13;;
31754;SDS011;18325;52.018;4.726;2024-02-26T13:38:15;4.03;;;2.70;;
31754;SDS011;18325;52.018;4.726;2024-02-26T13:40:42;2.90;;;2.03;;
31754;SDS011;18325;52.018;4.726;2024-02-26T13:43:09;4.60;;;2.57;;
31754;SDS011;18325;52.018;4.726;2024-02-26T13:45:37;2.83;;;2.07;;
31754;SDS011;18325;52.018;4.726;2024-02-26T13:48:05;2.87;;;2.00;;
31754;SDS011;18325;52.018;4.726;2024-02-26T13:50:32;6.73;;;2.30;;
31754;SDS011;18325;52.018;4.726;2024-02-26T13:52:59;4.73;;;2.77;;
31754;SDS011;18325;52.018;4.726;2024-02-26T13:55:25;3.57;;;2.30;;
31754;SDS011;18325;52.018;4.726;2024-02-26T13:57:53;3.97;;;2.27;;
31754;SDS011;18325;52.018;4.726;2024-02-26T14:00:20;3.00;;;2.10;;
31754;SDS011;18325;52.018;4.726;2024-02-26T14:02:48;2.60;;;1.73;;
31754;SDS011;18325;52.018;4.726;2024-02-26T14:05:14;2.50;;;2.10;;
31754;SDS011;18325;52.018;4.726;2024-02-26T14:07:41;2.10;;;1.70;;
31754;SDS011;18325;52.018;4.726;2024-02-26T14:10:08;1.60;;;1.50;;
31754;SDS011;18325;52.018;4.726;2024-02-26T14:12:35;2.67;;;1.70;;
31754;SDS011;18325;52.018;4.726;2024-02-26T14:15:02;3.10;;;1.63;;
31754;SDS011;18325;52.018;4.726;2024-02-26T14:17:30;1.80;;;1.67;;
31754;SDS011;18325;52.018;4.726;2024-02-26T14:19:58;4.40;;;2.30;;
31754;SDS011;18325;52.018;4.726;2024-02-26T14:22:24;3.60;;;1.50;;
31754;SDS011;18325;52.018;4.726;2024-02-26T14:24:52;3.63;;;2.00;;
31754;SDS011;18325;52.018;4.726;2024-02-26T14:27:18;4.20;;;1.63;;
31754;SDS011;18325;52.018;4.726;2024-02-26T14:29:47;3.13;;;1.73;;
31754;SDS011;18325;52.018;4.726;2024-02-26T14:32:14;4.47;;;1.83;;
31754;SDS011;18325;52.018;4.726;2024-02-26T14:34:40;3.37;;;2.17;;
31754;SDS011;18325;52.018;4.726;2024-02-26T14:37:08;6.03;;;2.40;;
31754;SDS011;18325;52.018;4.726;2024-02-26T14:39:35;2.63;;;1.93;;
31754;SDS011;18325;52.018;4.726;2024-02-26T14:42:03;4.27;;;1.77;;
31754;SDS011;18325;52.018;4.726;2024-02-26T14:44:30;1.60;;;1.43;;
31754;SDS011;18325;52.018;4.726;2024-02-26T14:46:57;3.60;;;2.00;;